createdAt,value
2018-12-19T00:00:26.208Z,0.50
2018-12-19T00:02:53.651Z,0.60
2018-12-19T00:05:21.143Z,0.60
2018-12-19T00:07:48.580Z,0.60
2018-12-19T00:10:16.058Z,0.50
2018-12-19T00:12:43.491Z,0.50
2018-12-19T00:15:10.947Z,0.50
2018-12-19T00:17:38.388Z,0.50
2018-12-19T00:20:06.554Z,0.50
2018-12-19T00:22:34.992Z,0.40
2018-12-19T00:25:02.632Z,0.50
2018-12-19T00:27:30.068Z,0.50
2018-12-19T00:29:57.582Z,0.50
2018-12-19T00:32:25.060Z,0.50
2018-12-19T00:34:52.516Z,0.50
2018-12-19T00:37:19.976Z,0.50
2018-12-19T00:39:47.428Z,0.50
2018-12-19T00:42:14.882Z,0.50
2018-12-19T00:44:42.339Z,0.60
2018-12-19T00:47:09.792Z,0.60
2018-12-19T00:49:37.258Z,0.60
2018-12-19T00:52:04.870Z,0.60
2018-12-19T00:54:32.306Z,0.60
2018-12-19T00:56:59.764Z,0.70
2018-12-19T00:59:27.211Z,0.70
2018-12-19T01:01:54.693Z,0.70
2018-12-19T01:04:22.129Z,0.80
2018-12-19T01:06:50.556Z,0.80
2018-12-19T01:09:18.006Z,0.90
2018-12-19T01:11:45.529Z,1.00
2018-12-19T01:14:13.021Z,1.00
2018-12-19T01:16:40.473Z,1.10
2018-12-19T01:19:07.934Z,1.10
2018-12-19T01:21:35.399Z,1.20
2018-12-19T01:24:04.781Z,1.30
2018-12-19T01:26:32.236Z,1.40
2018-12-19T01:28:59.695Z,1.40
2018-12-19T01:31:27.155Z,1.40
2018-12-19T01:33:54.710Z,1.40
2018-12-19T01:36:22.160Z,1.40
2018-12-19T01:38:49.603Z,1.50
2018-12-19T01:41:17.047Z,1.50
2018-12-19T01:43:44.491Z,1.50
2018-12-19T01:46:11.944Z,1.50
2018-12-19T01:48:39.392Z,1.60
2018-12-19T01:51:06.868Z,1.60
2018-12-19T01:53:34.311Z,1.60
2018-12-19T01:56:02.005Z,1.60
2018-12-19T01:58:29.442Z,1.60
2018-12-19T02:00:56.892Z,1.70
2018-12-19T02:03:24.364Z,1.70
2018-12-19T02:05:51.817Z,1.70
2018-12-19T02:08:19.321Z,1.70
2018-12-19T02:10:46.897Z,1.70
2018-12-19T02:13:14.328Z,1.70
2018-12-19T02:15:41.773Z,1.70
2018-12-19T02:18:09.215Z,1.60
2018-12-19T02:20:36.676Z,1.70
2018-12-19T02:23:04.198Z,1.70
2018-12-19T02:25:31.666Z,1.70
2018-12-19T02:27:59.118Z,1.70
2018-12-19T02:30:26.591Z,1.70
2018-12-19T02:32:54.042Z,1.80
2018-12-19T02:35:21.509Z,1.80
2018-12-19T02:37:49.045Z,1.70
2018-12-19T02:40:16.508Z,1.80
2018-12-19T02:42:43.945Z,1.70
2018-12-19T02:45:12.376Z,1.80
2018-12-19T02:47:39.820Z,1.80
2018-12-19T02:50:07.425Z,1.90
2018-12-19T02:52:34.880Z,1.90
2018-12-19T02:55:07.165Z,1.90
2018-12-19T02:57:34.629Z,1.90
2018-12-19T03:00:02.144Z,2.00
2018-12-19T03:02:29.600Z,1.90
2018-12-19T03:04:57.044Z,1.90
2018-12-19T03:07:28.233Z,2.00
2018-12-19T03:09:55.680Z,2.00
2018-12-19T03:12:23.138Z,1.90
2018-12-19T03:14:50.608Z,2.00
2018-12-19T03:17:18.064Z,2.00
2018-12-19T03:19:45.500Z,2.00
2018-12-19T03:22:12.951Z,2.10
2018-12-19T03:24:40.396Z,2.00
2018-12-19T03:27:09.752Z,1.90
2018-12-19T03:29:37.196Z,1.90
2018-12-19T03:32:04.669Z,2.00
2018-12-19T03:34:32.102Z,2.00
2018-12-19T03:36:59.585Z,2.00
2018-12-19T03:39:27.013Z,2.00
2018-12-19T03:41:54.473Z,2.00
2018-12-19T03:44:21.912Z,2.00
2018-12-19T03:46:49.368Z,2.00
2018-12-19T03:49:17.100Z,2.00
2018-12-19T03:51:44.613Z,2.00
2018-12-19T03:54:12.061Z,2.00
2018-12-19T03:56:39.780Z,2.10
2018-12-19T03:59:07.220Z,2.10
2018-12-19T04:01:34.677Z,2.20
2018-12-19T04:04:02.142Z,2.30
2018-12-19T04:06:29.590Z,2.30
2018-12-19T04:09:01.413Z,2.40
2018-12-19T04:11:28.878Z,2.40
2018-12-19T04:13:56.319Z,2.40
2018-12-19T04:16:23.806Z,2.40
2018-12-19T04:18:51.253Z,2.50
2018-12-19T04:21:18.772Z,2.50
2018-12-19T04:23:46.207Z,2.50
2018-12-19T04:26:13.681Z,2.50
2018-12-19T04:28:41.120Z,2.50
2018-12-19T04:31:08.593Z,2.40
2018-12-19T04:33:36.037Z,2.40
2018-12-19T04:36:03.943Z,2.30
2018-12-19T04:38:33.627Z,2.30
2018-12-19T04:41:01.156Z,2.30
2018-12-19T04:43:28.601Z,2.20
2018-12-19T04:45:56.109Z,2.20
2018-12-19T04:48:23.558Z,2.20
2018-12-19T04:50:51.006Z,2.10
2018-12-19T04:53:18.474Z,2.10
2018-12-19T04:55:45.917Z,2.00
2018-12-19T04:58:13.399Z,2.00
2018-12-19T05:00:40.876Z,2.00
2018-12-19T05:03:08.440Z,2.00
2018-12-19T05:05:35.873Z,2.00
2018-12-19T05:08:03.458Z,2.00
2018-12-19T05:10:30.897Z,2.00
2018-12-19T05:12:58.373Z,2.10
2018-12-19T05:15:25.818Z,2.10
2018-12-19T05:17:54.249Z,2.10
2018-12-19T05:20:21.725Z,2.20
2018-12-19T05:22:49.214Z,2.20
2018-12-19T05:25:16.654Z,2.20
2018-12-19T05:27:44.126Z,2.20
2018-12-19T05:30:11.588Z,2.30
2018-12-19T05:32:39.055Z,2.30
2018-12-19T05:35:07.006Z,2.30
2018-12-19T05:37:34.454Z,2.30
2018-12-19T05:40:01.901Z,2.30
2018-12-19T05:42:29.350Z,2.20
2018-12-19T05:44:56.784Z,2.20
2018-12-19T05:47:24.491Z,2.20
2018-12-19T05:49:52.080Z,2.20
2018-12-19T05:52:21.511Z,2.20
2018-12-19T05:54:49.115Z,2.20
2018-12-19T05:57:17.984Z,2.30
2018-12-19T05:59:45.508Z,2.30
2018-12-19T06:02:12.951Z,2.40
2018-12-19T06:04:40.388Z,2.50
2018-12-19T06:07:07.932Z,2.50
2018-12-19T06:09:35.387Z,2.50
2018-12-19T06:12:02.874Z,2.40
2018-12-19T06:14:30.362Z,2.40
2018-12-19T06:16:57.820Z,2.40
2018-12-19T06:19:25.268Z,2.50
2018-12-19T06:21:52.719Z,2.60
2018-12-19T06:24:22.151Z,2.60
2018-12-19T06:26:49.608Z,2.60
2018-12-19T06:29:17.076Z,2.70
2018-12-19T06:31:44.567Z,2.70
2018-12-19T06:34:12.067Z,2.60
2018-12-19T06:36:39.525Z,2.70
2018-12-19T06:39:07.119Z,2.70
2018-12-19T06:41:34.665Z,2.70
2018-12-19T06:44:02.152Z,2.70
2018-12-19T06:46:29.623Z,2.70
2018-12-19T06:48:57.062Z,2.80
2018-12-19T06:51:24.538Z,2.80
2018-12-19T06:53:52.044Z,2.80
2018-12-19T06:56:19.499Z,2.90
2018-12-19T06:58:47.040Z,3.00
2018-12-19T07:01:14.523Z,3.00
2018-12-19T07:03:42.000Z,3.00
2018-12-19T07:06:09.446Z,3.10
2018-12-19T07:08:36.907Z,3.20
2018-12-19T07:11:04.362Z,3.30
2018-12-19T07:13:31.901Z,3.30
2018-12-19T07:15:59.340Z,3.30
2018-12-19T07:18:26.801Z,3.30
2018-12-19T07:20:54.468Z,3.20
2018-12-19T07:23:21.977Z,3.30
2018-12-19T07:25:49.444Z,3.30
2018-12-19T07:28:16.919Z,3.20
2018-12-19T07:30:44.384Z,3.20
2018-12-19T07:33:13.810Z,3.10
2018-12-19T07:35:41.258Z,3.00
2018-12-19T07:38:08.726Z,3.00
2018-12-19T07:40:36.227Z,3.10
2018-12-19T07:43:03.809Z,3.20
2018-12-19T07:45:31.248Z,3.10
2018-12-19T07:47:58.723Z,3.10
2018-12-19T07:50:26.157Z,3.20
2018-12-19T07:52:53.873Z,3.20
2018-12-19T07:55:21.337Z,3.10
2018-12-19T07:57:48.795Z,3.10
2018-12-19T08:00:16.232Z,3.20
2018-12-19T08:02:43.711Z,3.30
2018-12-19T08:05:11.159Z,3.30
2018-12-19T08:07:38.617Z,3.30
2018-12-19T08:10:06.769Z,3.50
2018-12-19T08:12:36.165Z,3.60
2018-12-19T08:15:04.563Z,3.70
2018-12-19T08:17:32.181Z,3.70
2018-12-19T08:19:59.673Z,3.80
2018-12-19T08:22:27.139Z,3.90
2018-12-19T08:24:54.594Z,3.90
2018-12-19T08:27:22.058Z,4.00
2018-12-19T08:29:49.499Z,3.90
2018-12-19T08:32:16.961Z,3.90
2018-12-19T08:34:44.396Z,4.00
2018-12-19T08:37:11.867Z,4.10
2018-12-19T08:39:39.393Z,4.10
2018-12-19T08:42:06.836Z,4.20
2018-12-19T08:44:34.272Z,4.10
2018-12-19T08:47:03.718Z,4.00
2018-12-19T08:49:31.155Z,4.10
2018-12-19T08:51:58.633Z,4.10
2018-12-19T08:54:26.070Z,4.10
2018-12-19T08:56:53.598Z,4.20
2018-12-19T08:59:21.038Z,4.20
2018-12-19T09:01:48.510Z,4.20
2018-12-19T09:04:15.953Z,4.20
2018-12-19T09:06:43.396Z,4.30
2018-12-19T09:09:10.848Z,4.30
2018-12-19T09:11:38.301Z,4.30
2018-12-19T09:14:05.764Z,4.30
2018-12-19T09:16:33.221Z,4.30
2018-12-19T09:19:00.692Z,4.40
2018-12-19T09:21:28.196Z,4.40
2018-12-19T09:23:55.708Z,4.30
2018-12-19T09:26:23.182Z,4.40
2018-12-19T09:28:50.649Z,4.40
2018-12-19T09:31:18.096Z,4.40
2018-12-19T09:33:45.597Z,4.40
2018-12-19T09:36:13.045Z,4.40
2018-12-19T09:38:41.017Z,4.50
2018-12-19T09:41:12.284Z,4.60
2018-12-19T09:43:38.131Z,4.60
2018-12-19T09:46:05.601Z,4.50
2018-12-19T09:48:33.067Z,4.60
2018-12-19T09:51:02.448Z,4.60
2018-12-19T09:53:30.083Z,4.60
2018-12-19T09:55:57.581Z,4.70
2018-12-19T09:58:25.042Z,4.70
2018-12-19T10:00:52.522Z,4.70
2018-12-19T10:03:19.976Z,4.70
2018-12-19T10:05:47.425Z,4.80
2018-12-19T10:08:14.878Z,4.80
2018-12-19T10:10:44.256Z,4.80
2018-12-19T10:13:11.713Z,4.90
2018-12-19T10:15:39.163Z,4.80
2018-12-19T10:18:06.624Z,4.90
2018-12-19T10:20:34.128Z,4.80
2018-12-19T10:23:01.591Z,4.80
2018-12-19T10:25:29.036Z,4.80
2018-12-19T10:27:56.492Z,4.90
2018-12-19T10:30:24.003Z,4.80
2018-12-19T10:32:53.409Z,4.90
2018-12-19T10:35:25.460Z,4.90
2018-12-19T10:37:52.955Z,4.90
2018-12-19T10:40:20.397Z,5.00
2018-12-19T10:42:47.852Z,5.00
2018-12-19T10:45:15.300Z,5.10
2018-12-19T10:47:42.782Z,5.20
2018-12-19T10:50:10.322Z,5.30
2018-12-19T10:52:37.785Z,5.20
2018-12-19T10:55:05.640Z,5.30
2018-12-19T10:57:34.042Z,5.40
2018-12-19T11:00:01.522Z,5.30
2018-12-19T11:02:28.989Z,5.40
2018-12-19T11:04:56.453Z,5.40
2018-12-19T11:07:23.928Z,5.40
2018-12-19T11:09:51.375Z,5.40
2018-12-19T11:12:18.841Z,5.30
2018-12-19T11:14:46.307Z,5.30
2018-12-19T11:17:13.828Z,5.40
2018-12-19T11:19:41.295Z,5.40
2018-12-19T11:22:09.992Z,5.40
2018-12-19T11:24:37.589Z,5.40
2018-12-19T11:27:05.153Z,5.30
2018-12-19T11:29:34.595Z,5.20
2018-12-19T11:32:02.132Z,5.10
2018-12-19T11:34:29.568Z,4.90
2018-12-19T11:36:57.066Z,4.90
2018-12-19T11:39:24.569Z,4.80
2018-12-19T11:41:52.024Z,5.00
2018-12-19T11:44:19.472Z,5.00
2018-12-19T11:46:46.940Z,5.10
2018-12-19T11:49:14.398Z,5.10
2018-12-19T11:51:41.858Z,5.20
2018-12-19T11:54:09.373Z,5.30
2018-12-19T11:56:36.830Z,5.20
2018-12-19T11:59:04.328Z,5.10
2018-12-19T12:01:31.769Z,5.00
2018-12-19T12:03:59.252Z,4.90
2018-12-19T12:06:26.705Z,5.00
2018-12-19T12:08:54.148Z,5.00
2018-12-19T12:11:21.606Z,5.10
2018-12-19T12:13:49.064Z,5.20
2018-12-19T12:16:16.508Z,5.40
2018-12-19T12:18:43.964Z,5.50
2018-12-19T12:21:11.408Z,5.60
2018-12-19T12:23:47.143Z,5.70
2018-12-19T12:26:10.258Z,5.70
2018-12-19T12:28:37.712Z,5.80
2018-12-19T12:31:05.308Z,5.80
2018-12-19T12:33:32.780Z,5.70
2018-12-19T12:36:00.477Z,5.60
2018-12-19T12:38:33.904Z,5.60
2018-12-19T12:40:57.386Z,5.60
2018-12-19T12:43:24.855Z,5.60
2018-12-19T12:45:52.295Z,5.70
2018-12-19T12:48:19.774Z,5.80
2018-12-19T12:50:47.227Z,5.90
2018-12-19T12:53:16.087Z,6.00
2018-12-19T12:55:43.720Z,6.10
2018-12-19T12:58:11.191Z,6.10
2018-12-19T13:00:38.628Z,6.20
2018-12-19T13:03:06.094Z,6.20
2018-12-19T13:05:33.524Z,6.20
2018-12-19T13:08:02.906Z,6.30
2018-12-19T13:10:36.105Z,6.40
2018-12-19T13:12:59.805Z,6.50
2018-12-19T13:15:33.687Z,6.50
2018-12-19T13:18:01.592Z,6.50
2018-12-19T13:20:31.046Z,6.50
2018-12-19T13:23:02.810Z,6.50
2018-12-19T13:25:35.585Z,6.50
2018-12-19T13:28:04.078Z,6.50
2018-12-19T13:30:31.539Z,6.50
2018-12-19T13:32:59.470Z,6.50
2018-12-19T13:35:27.736Z,6.50
2018-12-19T13:37:55.196Z,6.60
2018-12-19T13:40:22.648Z,6.50
2018-12-19T13:42:50.103Z,6.50
2018-12-19T13:45:17.557Z,6.60
2018-12-19T13:47:44.995Z,6.70
2018-12-19T13:50:12.500Z,6.70
2018-12-19T13:52:39.960Z,6.80
2018-12-19T13:55:07.480Z,6.80
2018-12-19T13:57:34.922Z,6.80
2018-12-19T14:00:02.376Z,6.80
2018-12-19T14:02:30.804Z,6.70
2018-12-19T14:04:58.264Z,6.60
2018-12-19T14:07:25.700Z,6.60
2018-12-19T14:09:55.129Z,6.70
2018-12-19T14:12:22.596Z,6.70
2018-12-19T14:14:50.039Z,6.70
2018-12-19T14:17:17.483Z,6.80
2018-12-19T14:19:44.943Z,6.90
2018-12-19T14:22:12.381Z,6.80
2018-12-19T14:24:42.096Z,6.90
2018-12-19T14:27:09.660Z,6.90
2018-12-19T14:29:37.210Z,6.90
2018-12-19T14:32:04.658Z,6.90
2018-12-19T14:34:32.127Z,6.80
2018-12-19T14:36:59.617Z,6.80
2018-12-19T14:39:27.181Z,6.80
2018-12-19T14:41:54.622Z,6.80
2018-12-19T14:44:24.044Z,6.90
2018-12-19T14:46:51.498Z,6.80
2018-12-19T14:49:19.021Z,6.80
2018-12-19T14:51:46.463Z,6.80
2018-12-19T14:54:13.922Z,6.70
2018-12-19T14:56:42.341Z,6.60
2018-12-19T14:59:09.846Z,6.60
2018-12-19T15:01:37.350Z,6.50
2018-12-19T15:04:04.852Z,6.50
2018-12-19T15:06:32.297Z,6.60
2018-12-19T15:08:59.768Z,6.60
2018-12-19T15:11:27.212Z,6.50
2018-12-19T15:13:54.746Z,6.50
2018-12-19T15:16:22.191Z,6.50
2018-12-19T15:18:49.654Z,6.50
2018-12-19T15:21:17.162Z,6.60
2018-12-19T15:23:44.629Z,6.50
2018-12-19T15:26:12.056Z,6.40
2018-12-19T15:28:39.534Z,6.40
2018-12-19T15:31:06.964Z,6.40
2018-12-19T15:33:34.430Z,6.40
2018-12-19T15:36:02.222Z,6.40
2018-12-19T15:38:29.676Z,6.30
2018-12-19T15:40:57.136Z,6.20
2018-12-19T15:43:24.593Z,6.20
2018-12-19T15:45:52.044Z,6.20
2018-12-19T15:48:20.559Z,6.30
2018-12-19T15:50:48.064Z,6.20
2018-12-19T15:53:15.530Z,6.20
2018-12-19T15:55:43.022Z,6.20
2018-12-19T15:58:10.467Z,6.20
2018-12-19T16:00:42.584Z,6.10
2018-12-19T16:03:10.034Z,6.10
2018-12-19T16:05:37.490Z,6.10
2018-12-19T16:08:04.955Z,6.10
2018-12-19T16:10:32.407Z,6.10
2018-12-19T16:12:59.842Z,6.10
2018-12-19T16:15:27.756Z,6.10
2018-12-19T16:17:57.133Z,6.10
2018-12-19T16:20:24.625Z,6.10
2018-12-19T16:22:52.075Z,6.20
2018-12-19T16:25:19.540Z,6.10
2018-12-19T16:27:46.990Z,6.20
2018-12-19T16:30:14.450Z,6.10
2018-12-19T16:32:41.906Z,6.10
2018-12-19T16:35:09.367Z,6.10
2018-12-19T16:37:36.792Z,6.10
2018-12-19T16:42:57.758Z,6.10
2018-12-19T16:45:25.244Z,6.00
2018-12-19T16:47:52.698Z,6.00
2018-12-19T16:50:20.167Z,6.10
2018-12-19T16:52:47.618Z,6.10
2018-12-19T16:55:15.077Z,6.20
2018-12-19T16:57:42.508Z,6.30
2018-12-19T17:00:10.191Z,6.30
2018-12-19T17:02:37.676Z,6.30
2018-12-19T17:05:06.143Z,6.30
2018-12-19T17:07:33.572Z,6.30
2018-12-19T17:10:01.058Z,6.30
2018-12-19T17:12:28.501Z,6.30
2018-12-19T17:14:55.941Z,6.30
2018-12-19T17:17:23.390Z,6.30
2018-12-19T17:19:50.839Z,6.30
2018-12-19T17:22:18.306Z,6.30
2018-12-19T17:24:45.778Z,6.30
2018-12-19T17:27:13.216Z,6.30
2018-12-19T17:29:40.687Z,6.30
2018-12-19T17:32:08.268Z,6.20
2018-12-19T17:34:35.720Z,6.20
2018-12-19T17:37:03.193Z,6.30
2018-12-19T17:39:30.648Z,6.30
2018-12-19T17:41:58.079Z,6.30
2018-12-19T17:44:25.551Z,6.40
2018-12-19T17:46:52.980Z,6.40
2018-12-19T17:49:20.445Z,6.40
2018-12-19T17:51:47.880Z,6.40
2018-12-19T17:54:15.346Z,6.40
2018-12-19T17:56:42.816Z,6.40
2018-12-19T17:59:12.196Z,6.40
2018-12-19T18:01:39.718Z,6.40
2018-12-19T18:04:08.238Z,6.50
2018-12-19T18:06:39.981Z,6.40
2018-12-19T18:09:10.709Z,6.40
2018-12-19T18:11:38.156Z,6.50
2018-12-19T18:14:05.868Z,6.50
2018-12-19T18:16:33.330Z,6.50
2018-12-19T18:19:04.693Z,6.50
2018-12-19T18:21:32.336Z,6.50
2018-12-19T18:23:59.788Z,6.40
2018-12-19T18:26:29.171Z,6.50
2018-12-19T18:28:56.620Z,6.40
2018-12-19T18:31:24.055Z,6.40
2018-12-19T18:33:51.537Z,6.40
2018-12-19T18:36:18.967Z,6.30
2018-12-19T18:38:46.458Z,6.30
2018-12-19T18:41:14.010Z,6.20
2018-12-19T18:43:41.523Z,6.20
2018-12-19T18:46:08.979Z,6.20
2018-12-19T18:48:36.442Z,6.20
2018-12-19T18:51:04.150Z,6.20
2018-12-19T18:53:32.749Z,6.30
2018-12-19T18:56:00.203Z,6.30
2018-12-19T18:58:27.673Z,6.30
2018-12-19T19:00:55.184Z,6.20
2018-12-19T19:03:22.684Z,6.20
2018-12-19T19:05:50.214Z,6.20
2018-12-19T19:08:17.681Z,6.20
2018-12-19T19:10:45.204Z,6.20
2018-12-19T19:13:12.639Z,6.10
2018-12-19T19:15:40.115Z,6.20
2018-12-19T19:18:07.566Z,6.20
2018-12-19T19:20:35.012Z,6.20
2018-12-19T19:23:02.460Z,6.20
2018-12-19T19:25:29.916Z,6.30
2018-12-19T19:27:59.365Z,6.20
2018-12-19T19:30:26.839Z,6.10
2018-12-19T19:32:54.289Z,6.10
2018-12-19T19:35:21.736Z,6.10
2018-12-19T19:37:49.205Z,6.10
2018-12-19T19:40:16.675Z,6.10
2018-12-19T19:42:44.108Z,6.00
2018-12-19T19:45:11.577Z,6.00
2018-12-19T19:47:39.008Z,6.00
2018-12-19T19:50:06.576Z,6.10
2018-12-19T19:52:34.026Z,6.10
2018-12-19T19:55:02.434Z,6.20
2018-12-19T19:57:29.911Z,6.20
2018-12-19T19:59:57.466Z,6.10
2018-12-19T20:02:24.992Z,6.20
2018-12-19T20:04:52.527Z,6.20
2018-12-19T20:07:19.995Z,6.20
2018-12-19T20:09:47.432Z,6.30
2018-12-19T20:12:14.958Z,6.30
2018-12-19T20:14:42.424Z,6.40
2018-12-19T20:17:11.914Z,6.40
2018-12-19T20:19:39.348Z,6.40
2018-12-19T20:22:06.833Z,6.40
2018-12-19T20:24:34.273Z,6.40
2018-12-19T20:27:01.720Z,6.30
2018-12-19T20:29:29.164Z,6.30
2018-12-19T20:31:57.578Z,6.40
2018-12-19T20:34:25.015Z,6.40
2018-12-19T20:36:52.490Z,6.40
2018-12-19T20:39:19.944Z,6.30
2018-12-19T20:41:47.396Z,6.30
2018-12-19T20:44:14.833Z,6.20
2018-12-19T20:46:42.312Z,6.30
2018-12-19T20:49:09.760Z,6.30
2018-12-19T20:51:37.264Z,6.30
2018-12-19T20:54:04.726Z,6.30
2018-12-19T20:56:32.213Z,6.30
2018-12-19T20:58:59.756Z,6.40
2018-12-19T21:01:27.226Z,6.30
2018-12-19T21:03:54.679Z,6.30
2018-12-19T21:06:22.128Z,6.40
2018-12-19T21:08:49.566Z,6.30
2018-12-19T21:11:20.283Z,6.40
2018-12-19T21:13:47.717Z,6.40
2018-12-19T21:16:15.204Z,6.40
2018-12-19T21:18:46.625Z,6.40
2018-12-19T21:21:18.061Z,6.30
2018-12-19T21:23:45.506Z,6.30
2018-12-19T21:26:12.989Z,6.30
2018-12-19T21:28:40.430Z,6.40
2018-12-19T21:31:07.910Z,6.30
2018-12-19T21:33:35.361Z,6.40
2018-12-19T21:36:04.002Z,6.50
2018-12-19T21:38:31.533Z,6.50
2018-12-19T21:40:59.064Z,6.50
2018-12-19T21:43:26.592Z,6.50
2018-12-19T21:45:54.171Z,6.50
2018-12-19T21:48:21.674Z,6.40
2018-12-19T21:50:50.038Z,6.30
2018-12-19T21:53:17.555Z,6.40
2018-12-19T21:55:45.071Z,6.40
2018-12-19T21:58:12.560Z,6.30
2018-12-19T22:00:40.251Z,6.40
2018-12-19T22:03:07.288Z,6.40
2018-12-19T22:05:35.120Z,6.50
2018-12-19T22:08:02.610Z,6.40
2018-12-19T22:10:30.120Z,6.50
2018-12-19T22:12:57.582Z,6.50
2018-12-19T22:15:25.029Z,6.50
2018-12-19T22:17:54.547Z,6.50
2018-12-19T22:20:21.978Z,6.50
2018-12-19T22:22:49.500Z,6.50
2018-12-19T22:25:16.932Z,6.50
2018-12-19T22:27:44.375Z,6.50
2018-12-19T22:30:11.872Z,6.50
2018-12-19T22:32:39.452Z,6.40
2018-12-19T22:35:06.953Z,6.40
2018-12-19T22:37:34.422Z,6.50
2018-12-19T22:40:02.004Z,6.50
2018-12-19T22:42:29.471Z,6.50
2018-12-19T22:44:57.032Z,6.50
2018-12-19T22:47:24.552Z,6.50
2018-12-19T22:49:52.089Z,6.40
2018-12-19T22:52:19.811Z,6.50
2018-12-19T22:54:47.433Z,6.50
2018-12-19T22:57:14.897Z,6.50
2018-12-19T22:59:42.419Z,6.40
2018-12-19T23:02:15.640Z,6.50
2018-12-19T23:04:43.106Z,6.50
2018-12-19T23:07:10.559Z,6.50
2018-12-19T23:09:38.031Z,6.50
2018-12-19T23:12:05.552Z,6.50
2018-12-19T23:14:32.989Z,6.50
2018-12-19T23:17:02.457Z,6.50
2018-12-19T23:19:29.983Z,6.40
2018-12-19T23:21:57.431Z,6.40
2018-12-19T23:24:24.885Z,6.40
2018-12-19T23:26:52.459Z,6.40
2018-12-19T23:29:20.006Z,6.40
2018-12-19T23:31:47.574Z,6.40
2018-12-19T23:34:15.094Z,6.40
2018-12-19T23:36:42.650Z,6.50
2018-12-19T23:39:10.186Z,6.50
2018-12-19T23:41:37.701Z,6.40
2018-12-19T23:44:05.156Z,6.40
2018-12-19T23:46:34.277Z,6.40
2018-12-19T23:49:01.713Z,6.40
2018-12-19T23:51:29.692Z,6.40
2018-12-19T23:53:57.148Z,6.40
2018-12-19T23:56:24.587Z,6.40
2018-12-19T23:58:52.204Z,6.40
